Main page
METAR-TAF:

METAR-TAF

Airports :

Al-Ahsa International Airport

Al-Hasa, Saudi Arabia

latitude: 25-18N, longitude: 049-29E, elevation: 179 m

Current weather observation

The report was made 33 minutes ago, at 12:00 UTC
Wind 3 kt from variable directions
Temperature 45°C
Humidity 14%
Pressure 1001 hPa
Visibility 10 km or more
Few clouds at a height of 4000 ft

METAR: OEAH 251200Z VRB03KT 9999 FEW040 45/11 Q1001 NOSIG

Time: 15:33 (12:33 UTC)

Forecast

The report was made 1 hour and 33 minutes ago, at 11:00 UTC
Forecast valid from 25 at 12 UTC to 26 at 18 UTC
Wind 13 kt from the East/Northeast
Visibility: 8000 m
Becoming
from 25 at 18 UTC to 25 at 20 UTC
Wind 6 kt from the West

TAF: OEAH 251100Z 2512/2618 07013KT 8000 NSC BECMG 2518/2520 26006KT

Weather observations and forecasts of more than 4000 airports (METAR and TAF reports).

The available stations are represented by yellow and red dots on the map.

Hover mouse over dot to see the name of the station.

Then click to see weather observations and forecasts.

To change the map : click on the green buttons with a black cross to zoom in, on the green button with a dash to zoom out, or on the green arrows for adjacent maps.


METAR-TAF: